Kezdőlap
METAR-TAF:

METAR-TAF

Repülőterek :

Tucumcari Municipal Airport

Tucumcari, Új-Mexikó, Amerikai Egyesült Államok

földrajzi szélesség: 35-10-58N, földrajzi hosszúság: 103-36-11W, magasság: 1239 m

Jelenlegi meteorológiai megfigyelések

A jelentés 1 órával és 19 perccel ezelõtt készült, 01:53 UTC
Déli szél 3 kt
Hőmérséklet 23°C
Páratartalom 65%
Légköri nyomás 1020 hPa
Látótávolság: 16.1 km
Derült ég

METAR: KTCC 230153Z AUTO 17003KT 10SM CLR 23/16 A3011 RMK AO2 SLP146 T02280161

Idő: 21:12 (03:12 UTC)

Előrejelzés

A jelentés 3 órával és 32 perccel ezelõtt készült, 23:40 UTC
Az előrejelzés 23-én 00 óra UTC és 23-én 24 óra UTC között érvényes
Dél-délnyugati szél 7 kt
Látótávolság: 10 km
Szórványos felhőzet 12000 lábon
23-én 1800 órától UTC szerint
Különbözõ irányokból fújó szél 6 kt
Látótávolság: 10 km
Kevés felhő 12000 lábon

TAF: KTCC 222340Z 2300/2324 20007KT P6SM SCT120 FM231800 VRB06KT P6SM FEW120

Meteorológiai megfigyelések és előrejelzések több, mint 4000 repülőtéren (METAR és TAF jelentéseket).

A térképen piros és sárga pontok jelzik az elérhető meteorológiai állomásokat.

Mozgassa az egeret a pont fölött, hogy megjelenjen az állomás neve.

Azután kattintson az időjárási megfigyelések és előrejelzések megtekintéséhez.

A térkép megváltoztatása: kattintson a fekete keresztel jelölt zöld gombra ráközelítéshez, a vonallal jelölt zöld gombra távolításhoz, vagy a zöld nyilakra a szomszédos térképek eléréséhez.


METAR-TAF: